sensor_id;sensor_type;location;lat;lon;timestamp;pressure;altitude;pressure_sealevel;temperature;humidity
14689;BME280;7432;48.728;9.154;2023-01-26T00:01:28;97074.16;;;1.11;97.39
14689;BME280;7432;48.728;9.154;2023-01-26T00:03:55;97068.09;;;1.13;96.30
14689;BME280;7432;48.728;9.154;2023-01-26T00:06:22;97064.28;;;1.20;96.19
14689;BME280;7432;48.728;9.154;2023-01-26T00:08:51;97066.09;;;1.18;96.84
14689;BME280;7432;48.728;9.154;2023-01-26T00:11:20;97062.28;;;1.11;95.34
14689;BME280;7432;48.728;9.154;2023-01-26T00:13:49;97058.22;;;1.09;95.37
14689;BME280;7432;48.728;9.154;2023-01-26T00:16:15;97058.75;;;1.14;95.61
14689;BME280;7432;48.728;9.154;2023-01-26T00:18:42;97062.38;;;1.10;95.77
14689;BME280;7432;48.728;9.154;2023-01-26T00:21:11;97052.88;;;1.13;96.65
14689;BME280;7432;48.728;9.154;2023-01-26T00:23:38;97038.47;;;1.14;95.99
14689;BME280;7432;48.728;9.154;2023-01-26T00:26:07;97042.44;;;1.04;94.46
14689;BME280;7432;48.728;9.154;2023-01-26T00:28:34;97031.97;;;0.80;95.69
14689;BME280;7432;48.728;9.154;2023-01-26T00:31:01;97028.91;;;0.75;96.52
14689;BME280;7432;48.728;9.154;2023-01-26T00:33:28;97028.25;;;0.72;97.43
14689;BME280;7432;48.728;9.154;2023-01-26T00:35:55;97015.94;;;0.66;97.50
14689;BME280;7432;48.728;9.154;2023-01-26T00:38:22;97016.03;;;0.64;96.64
14689;BME280;7432;48.728;9.154;2023-01-26T00:40:49;96990.13;;;0.59;97.74
14689;BME280;7432;48.728;9.154;2023-01-26T00:43:16;97011.06;;;0.77;97.16
14689;BME280;7432;48.728;9.154;2023-01-26T00:45:43;97012.34;;;0.84;97.15
14689;BME280;7432;48.728;9.154;2023-01-26T00:48:10;97007.00;;;0.88;97.80
14689;BME280;7432;48.728;9.154;2023-01-26T00:50:36;97005.28;;;0.89;97.34
14689;BME280;7432;48.728;9.154;2023-01-26T00:53:02;97000.41;;;0.86;97.29
14689;BME280;7432;48.728;9.154;2023-01-26T00:55:29;97002.03;;;0.87;96.45
14689;BME280;7432;48.728;9.154;2023-01-26T00:57:57;97000.41;;;0.86;96.61
14689;BME280;7432;48.728;9.154;2023-01-26T01:00:25;96986.28;;;0.82;96.73
14689;BME280;7432;48.728;9.154;2023-01-26T01:02:51;96986.91;;;0.85;97.10
14689;BME280;7432;48.728;9.154;2023-01-26T01:05:17;96998.59;;;0.88;97.54
14689;BME280;7432;48.728;9.154;2023-01-26T01:07:44;96993.78;;;0.83;97.70
14689;BME280;7432;48.728;9.154;2023-01-26T01:10:10;96987.72;;;0.86;97.56
14689;BME280;7432;48.728;9.154;2023-01-26T01:12:36;96993.06;;;0.81;97.43
14689;BME280;7432;48.728;9.154;2023-01-26T01:15:04;96983.19;;;0.77;96.92
14689;BME280;7432;48.728;9.154;2023-01-26T01:17:32;96989.16;;;0.76;97.70
14689;BME280;7432;48.728;9.154;2023-01-26T01:20:00;96991.72;;;0.76;97.50
14689;BME280;7432;48.728;9.154;2023-01-26T01:22:27;96984.09;;;0.76;98.83
14689;BME280;7432;48.728;9.154;2023-01-26T01:24:53;96992.44;;;0.78;98.47
14689;BME280;7432;48.728;9.154;2023-01-26T01:27:19;96995.25;;;0.87;98.49
14689;BME280;7432;48.728;9.154;2023-01-26T01:29:46;96993.63;;;0.86;98.42
14689;BME280;7432;48.728;9.154;2023-01-26T01:32:12;96995.44;;;0.84;98.56
14689;BME280;7432;48.728;9.154;2023-01-26T01:34:40;96989.63;;;0.82;98.50
14689;BME280;7432;48.728;9.154;2023-01-26T01:37:06;96981.66;;;0.88;98.63
14689;BME280;7432;48.728;9.154;2023-01-26T01:39:32;96981.84;;;0.85;98.85
14689;BME280;7432;48.728;9.154;2023-01-26T01:41:59;96977.88;;;0.81;98.83
14689;BME280;7432;48.728;9.154;2023-01-26T01:44:25;96983.81;;;0.80;99.09
14689;BME280;7432;48.728;9.154;2023-01-26T01:46:54;96978.03;;;0.78;97.77
14689;BME280;7432;48.728;9.154;2023-01-26T01:49:25;96982.19;;;0.65;98.12
14689;BME280;7432;48.728;9.154;2023-01-26T01:51:57;96976.28;;;0.65;99.08
14689;BME280;7432;48.728;9.154;2023-01-26T01:54:29;96970.72;;;0.74;98.85
14689;BME280;7432;48.728;9.154;2023-01-26T01:57:02;96970.25;;;0.67;98.81
14689;BME280;7432;48.728;9.154;2023-01-26T01:59:30;96974.41;;;0.68;99.61
14689;BME280;7432;48.728;9.154;2023-01-26T02:01:58;96968.19;;;0.74;99.16
14689;BME280;7432;48.728;9.154;2023-01-26T02:04:24;96969.34;;;0.82;99.22
14689;BME280;7432;48.728;9.154;2023-01-26T02:06:56;96968.78;;;0.77;97.98
14689;BME280;7432;48.728;9.154;2023-01-26T02:09:26;96965.38;;;0.78;98.10
14689;BME280;7432;48.728;9.154;2023-01-26T02:12:13;96969.72;;;0.76;99.18
14689;BME280;7432;48.728;9.154;2023-01-26T02:14:41;96960.47;;;0.75;98.24
14689;BME280;7432;48.728;9.154;2023-01-26T02:17:08;96953.53;;;0.79;99.59
14689;BME280;7432;48.728;9.154;2023-01-26T02:19:40;96944.81;;;0.83;98.88
14689;BME280;7432;48.728;9.154;2023-01-26T02:22:21;96950.63;;;0.71;98.63
14689;BME280;7432;48.728;9.154;2023-01-26T02:24:54;96944.34;;;0.62;98.49
14689;BME280;7432;48.728;9.154;2023-01-26T02:27:23;96948.69;;;0.60;99.11
14689;BME280;7432;48.728;9.154;2023-01-26T02:29:49;96936.44;;;0.52;99.33
14689;BME280;7432;48.728;9.154;2023-01-26T02:32:16;96944.22;;;0.49;98.76
14689;BME280;7432;48.728;9.154;2023-01-26T02:34:42;96937.72;;;0.45;99.63
14689;BME280;7432;48.728;9.154;2023-01-26T02:37:12;96950.38;;;0.45;99.44
14689;BME280;7432;48.728;9.154;2023-01-26T02:39:43;96940.69;;;0.52;99.24
14689;BME280;7432;48.728;9.154;2023-01-26T02:42:13;96941.06;;;0.46;99.43
14689;BME280;7432;48.728;9.154;2023-01-26T02:45:15;96937.00;;;0.57;99.67
14689;BME280;7432;48.728;9.154;2023-01-26T02:47:42;96941.19;;;0.58;99.36
14689;BME280;7432;48.728;9.154;2023-01-26T02:50:09;96943.63;;;0.60;98.89
14689;BME280;7432;48.728;9.154;2023-01-26T02:52:35;96935.75;;;0.65;99.14
14689;BME280;7432;48.728;9.154;2023-01-26T02:55:02;96929.16;;;0.62;98.83
14689;BME280;7432;48.728;9.154;2023-01-26T02:57:46;96937.47;;;0.64;97.99
14689;BME280;7432;48.728;9.154;2023-01-26T03:00:17;96930.22;;;0.58;99.04
14689;BME280;7432;48.728;9.154;2023-01-26T03:02:45;96930.31;;;0.56;98.85
14689;BME280;7432;48.728;9.154;2023-01-26T03:05:12;96925.97;;;0.58;99.58
14689;BME280;7432;48.728;9.154;2023-01-26T03:07:38;96925.91;;;0.60;100.00
14689;BME280;7432;48.728;9.154;2023-01-26T03:10:06;96911.66;;;0.57;99.95
14689;BME280;7432;48.728;9.154;2023-01-26T03:12:33;96924.63;;;0.67;99.38
14689;BME280;7432;48.728;9.154;2023-01-26T03:14:59;96918.09;;;0.63;98.74
14689;BME280;7432;48.728;9.154;2023-01-26T03:17:44;96918.09;;;0.63;99.46
14689;BME280;7432;48.728;9.154;2023-01-26T03:20:11;96915.84;;;0.58;100.00
14689;BME280;7432;48.728;9.154;2023-01-26T03:22:56;96909.31;;;0.69;99.99
14689;BME280;7432;48.728;9.154;2023-01-26T03:25:40;96902.66;;;0.68;100.00
14689;BME280;7432;48.728;9.154;2023-01-26T03:28:24;96897.09;;;0.61;99.69
14689;BME280;7432;48.728;9.154;2023-01-26T03:30:53;96902.81;;;0.65;99.78
14689;BME280;7432;48.728;9.154;2023-01-26T03:33:22;96893.41;;;0.67;99.16
14689;BME280;7432;48.728;9.154;2023-01-26T03:35:51;96890.69;;;0.70;98.61
14689;BME280;7432;48.728;9.154;2023-01-26T03:38:18;96889.25;;;0.66;98.30
14689;BME280;7432;48.728;9.154;2023-01-26T03:40:44;96880.72;;;0.67;99.26
14689;BME280;7432;48.728;9.154;2023-01-26T03:43:28;96880.72;;;0.67;99.06
14689;BME280;7432;48.728;9.154;2023-01-26T03:46:12;96883.19;;;0.68;97.67
14689;BME280;7432;48.728;9.154;2023-01-26T03:48:57;96881.72;;;0.64;97.53
14689;BME280;7432;48.728;9.154;2023-01-26T03:51:41;96898.66;;;0.64;97.53
14689;BME280;7432;48.728;9.154;2023-01-26T03:54:25;96891.69;;;0.67;98.40
14689;BME280;7432;48.728;9.154;2023-01-26T03:57:09;96889.25;;;0.66;98.32
14689;BME280;7432;48.728;9.154;2023-01-26T03:59:35;96891.16;;;0.62;98.30
14689;BME280;7432;48.728;9.154;2023-01-26T04:02:05;96861.09;;;0.56;97.72
14689;BME280;7432;48.728;9.154;2023-01-26T04:04:51;96891.88;;;0.64;98.11
14689;BME280;7432;48.728;9.154;2023-01-26T04:07:35;96888.63;;;0.62;98.19
14689;BME280;7432;48.728;9.154;2023-01-26T04:10:19;96883.78;;;0.57;98.53
14689;BME280;7432;48.728;9.154;2023-01-26T04:12:46;96894.75;;;0.58;98.11
14689;BME280;7432;48.728;9.154;2023-01-26T04:15:30;96898.84;;;0.46;98.61
14689;BME280;7432;48.728;9.154;2023-01-26T04:18:14;96898.00;;;0.46;98.15
14689;BME280;7432;48.728;9.154;2023-01-26T04:21:01;96891.03;;;0.49;97.84
14689;BME280;7432;48.728;9.154;2023-01-26T04:23:45;96889.13;;;0.53;99.15
14689;BME280;7432;48.728;9.154;2023-01-26T04:26:11;96892.66;;;0.50;98.01
14689;BME280;7432;48.728;9.154;2023-01-26T04:28:37;96890.13;;;0.50;99.14
14689;BME280;7432;48.728;9.154;2023-01-26T04:31:04;96890.34;;;0.62;99.00
14689;BME280;7432;48.728;9.154;2023-01-26T04:33:30;96894.56;;;0.61;98.77
14689;BME280;7432;48.728;9.154;2023-01-26T04:36:03;96892.50;;;0.68;97.05
14689;BME280;7432;48.728;9.154;2023-01-26T04:38:29;96887.31;;;0.55;98.17
14689;BME280;7432;48.728;9.154;2023-01-26T04:40:55;96884.06;;;0.53;97.29
14689;BME280;7432;48.728;9.154;2023-01-26T04:43:22;96885.19;;;0.49;97.23
14689;BME280;7432;48.728;9.154;2023-01-26T04:45:56;96876.22;;;0.43;97.56
14689;BME280;7432;48.728;9.154;2023-01-26T04:48:23;96871.50;;;0.37;98.41
14689;BME280;7432;48.728;9.154;2023-01-26T04:50:52;96866.31;;;0.39;97.26
14689;BME280;7432;48.728;9.154;2023-01-26T04:53:20;96866.44;;;0.37;98.54
14689;BME280;7432;48.728;9.154;2023-01-26T04:55:47;96869.78;;;0.38;98.80
14689;BME280;7432;48.728;9.154;2023-01-26T04:58:13;96867.59;;;0.32;99.00
14689;BME280;7432;48.728;9.154;2023-01-26T05:00:39;96867.22;;;0.24;98.26
14689;BME280;7432;48.728;9.154;2023-01-26T05:03:06;96869.97;;;0.35;97.68
14689;BME280;7432;48.728;9.154;2023-01-26T05:05:34;96870.03;;;0.33;97.91
14689;BME280;7432;48.728;9.154;2023-01-26T05:08:01;96860.00;;;0.32;97.84
14689;BME280;7432;48.728;9.154;2023-01-26T05:10:28;96857.81;;;0.26;98.17
14689;BME280;7432;48.728;9.154;2023-01-26T05:12:55;96863.19;;;0.35;98.04
14689;BME280;7432;48.728;9.154;2023-01-26T05:15:21;96866.50;;;0.36;97.83
14689;BME280;7432;48.728;9.154;2023-01-26T05:17:48;96864.19;;;0.33;97.32
14689;BME280;7432;48.728;9.154;2023-01-26T05:20:14;96857.53;;;0.30;97.84
14689;BME280;7432;48.728;9.154;2023-01-26T05:22:41;96875.25;;;0.30;97.69
14689;BME280;7432;48.728;9.154;2023-01-26T05:25:08;96868.03;;;0.24;97.86
14689;BME280;7432;48.728;9.154;2023-01-26T05:27:36;96863.41;;;0.17;99.17
14689;BME280;7432;48.728;9.154;2023-01-26T05:30:03;96867.06;;;0.27;98.86
14689;BME280;7432;48.728;9.154;2023-01-26T05:32:30;96863.41;;;0.17;98.21
14689;BME280;7432;48.728;9.154;2023-01-26T05:34:56;96867.47;;;0.19;97.08
14689;BME280;7432;48.728;9.154;2023-01-26T05:37:24;96867.63;;;0.02;96.80
14689;BME280;7432;48.728;9.154;2023-01-26T05:39:50;96877.16;;;0.13;98.62
14689;BME280;7432;48.728;9.154;2023-01-26T05:42:17;96876.97;;;0.16;98.28
14689;BME280;7432;48.728;9.154;2023-01-26T05:44:45;96881.69;;;0.22;98.66
14689;BME280;7432;48.728;9.154;2023-01-26T05:47:11;96879.88;;;0.24;97.47
14689;BME280;7432;48.728;9.154;2023-01-26T05:49:38;96884.31;;;0.20;96.98
14689;BME280;7432;48.728;9.154;2023-01-26T05:52:07;96878.41;;;0.20;97.33
14689;BME280;7432;48.728;9.154;2023-01-26T05:54:33;96878.25;;;0.23;96.47
14689;BME280;7432;48.728;9.154;2023-01-26T05:57:00;96884.03;;;0.11;96.80
14689;BME280;7432;48.728;9.154;2023-01-26T05:59:26;96876.13;;;0.01;97.29
14689;BME280;7432;48.728;9.154;2023-01-26T06:01:54;96875.13;;;0.04;98.02
14689;BME280;7432;48.728;9.154;2023-01-26T06:04:21;96878.91;;;-0.04;97.43
14689;BME280;7432;48.728;9.154;2023-01-26T06:06:47;96873.47;;;-0.12;97.85
14689;BME280;7432;48.728;9.154;2023-01-26T06:09:14;96872.53;;;-0.11;97.85
14689;BME280;7432;48.728;9.154;2023-01-26T06:11:40;96879.34;;;-0.11;98.65
14689;BME280;7432;48.728;9.154;2023-01-26T06:14:07;96874.41;;;-0.28;98.26
14689;BME280;7432;48.728;9.154;2023-01-26T06:16:33;96882.13;;;-0.16;97.52
14689;BME280;7432;48.728;9.154;2023-01-26T06:19:01;96880.97;;;-0.10;98.02
14689;BME280;7432;48.728;9.154;2023-01-26T06:21:28;96878.59;;;-0.13;96.84
14689;BME280;7432;48.728;9.154;2023-01-26T06:23:54;96882.94;;;-0.15;97.17
14689;BME280;7432;48.728;9.154;2023-01-26T06:26:20;96883.69;;;-0.29;97.25
14689;BME280;7432;48.728;9.154;2023-01-26T06:28:48;96881.91;;;-0.27;98.00
14689;BME280;7432;48.728;9.154;2023-01-26T06:31:15;96880.13;;;-0.25;97.92
14689;BME280;7432;48.728;9.154;2023-01-26T06:33:41;96885.81;;;-0.21;98.08
14689;BME280;7432;48.728;9.154;2023-01-26T06:36:10;96890.97;;;-0.23;98.13
14689;BME280;7432;48.728;9.154;2023-01-26T06:38:37;96877.50;;;-0.23;97.90
14689;BME280;7432;48.728;9.154;2023-01-26T06:41:06;96876.25;;;-0.16;98.23
14689;BME280;7432;48.728;9.154;2023-01-26T06:43:34;96882.28;;;-0.19;97.80
14689;BME280;7432;48.728;9.154;2023-01-26T06:46:01;96878.16;;;-0.20;98.44
14689;BME280;7432;48.728;9.154;2023-01-26T06:48:30;96883.50;;;-0.10;99.13
14689;BME280;7432;48.728;9.154;2023-01-26T06:51:03;96871.75;;;-0.11;98.73
14689;BME280;7432;48.728;9.154;2023-01-26T06:53:36;96880.53;;;-0.03;98.10
14689;BME280;7432;48.728;9.154;2023-01-26T06:56:03;96850.53;;;-0.24;97.25
14689;BME280;7432;48.728;9.154;2023-01-26T06:58:29;96874.50;;;0.00;97.96
14689;BME280;7432;48.728;9.154;2023-01-26T07:00:56;96884.63;;;0.00;97.55
14689;BME280;7432;48.728;9.154;2023-01-26T07:03:22;96875.25;;;-0.14;97.18
14689;BME280;7432;48.728;9.154;2023-01-26T07:05:49;96882.78;;;-0.12;96.91
14689;BME280;7432;48.728;9.154;2023-01-26T07:08:15;96884.31;;;-0.10;96.25
14689;BME280;7432;48.728;9.154;2023-01-26T07:10:43;96890.69;;;-0.18;96.02
14689;BME280;7432;48.728;9.154;2023-01-26T07:13:09;96892.53;;;-0.36;96.78
14689;BME280;7432;48.728;9.154;2023-01-26T07:15:35;96888.59;;;-0.26;97.27
14689;BME280;7432;48.728;9.154;2023-01-26T07:18:02;96888.94;;;-0.32;97.30
14689;BME280;7432;48.728;9.154;2023-01-26T07:20:28;96879.78;;;-0.34;97.65
14689;BME280;7432;48.728;9.154;2023-01-26T07:22:55;96894.94;;;-0.19;97.31
14689;BME280;7432;48.728;9.154;2023-01-26T07:25:21;96892.25;;;-0.16;96.43
14689;BME280;7432;48.728;9.154;2023-01-26T07:27:54;96893.00;;;-0.29;97.27
14689;BME280;7432;48.728;9.154;2023-01-26T07:30:20;96896.78;;;-0.36;96.83
14689;BME280;7432;48.728;9.154;2023-01-26T07:32:47;96897.81;;;-0.40;97.21
14689;BME280;7432;48.728;9.154;2023-01-26T07:35:13;96896.22;;;-0.57;98.44
14689;BME280;7432;48.728;9.154;2023-01-26T07:37:39;96896.69;;;-0.50;99.14
14689;BME280;7432;48.728;9.154;2023-01-26T07:40:07;96900.69;;;-0.46;97.87
14689;BME280;7432;48.728;9.154;2023-01-26T07:42:34;96894.16;;;-0.50;97.79
14689;BME280;7432;48.728;9.154;2023-01-26T07:45:02;96900.69;;;-0.46;98.02
14689;BME280;7432;48.728;9.154;2023-01-26T07:47:28;96901.13;;;-0.38;98.01
14689;BME280;7432;48.728;9.154;2023-01-26T07:49:54;96894.25;;;-0.36;98.94
14689;BME280;7432;48.728;9.154;2023-01-26T07:52:21;96902.88;;;-0.25;98.40
14689;BME280;7432;48.728;9.154;2023-01-26T07:54:47;96898.78;;;-0.12;98.53
14689;BME280;7432;48.728;9.154;2023-01-26T07:57:15;96899.16;;;-0.04;98.36
14689;BME280;7432;48.728;9.154;2023-01-26T07:59:42;96904.38;;;-0.07;97.11
14689;BME280;7432;48.728;9.154;2023-01-26T08:02:09;96889.94;;;-0.05;96.49
14689;BME280;7432;48.728;9.154;2023-01-26T08:04:36;96893.44;;;-0.07;95.88
14689;BME280;7432;48.728;9.154;2023-01-26T08:07:03;96899.41;;;-0.08;95.76
14689;BME280;7432;48.728;9.154;2023-01-26T08:09:29;96906.38;;;-0.12;95.63
14689;BME280;7432;48.728;9.154;2023-01-26T08:11:55;96866.66;;;-0.25;95.68
14689;BME280;7432;48.728;9.154;2023-01-26T08:14:23;96898.50;;;-0.07;96.89
14689;BME280;7432;48.728;9.154;2023-01-26T08:16:49;96897.09;;;0.03;95.99
14689;BME280;7432;48.728;9.154;2023-01-26T08:19:17;96905.50;;;0.04;96.22
14689;BME280;7432;48.728;9.154;2023-01-26T08:21:43;96902.34;;;0.00;94.36
14689;BME280;7432;48.728;9.154;2023-01-26T08:24:10;96897.84;;;0.05;95.30
14689;BME280;7432;48.728;9.154;2023-01-26T08:26:37;96899.03;;;0.14;95.84
14689;BME280;7432;48.728;9.154;2023-01-26T08:29:03;96892.41;;;0.11;95.68
14689;BME280;7432;48.728;9.154;2023-01-26T08:31:30;96905.66;;;0.16;94.92
14689;BME280;7432;48.728;9.154;2023-01-26T08:33:57;96896.41;;;0.15;92.96
14689;BME280;7432;48.728;9.154;2023-01-26T08:36:25;96887.34;;;0.11;92.80
14689;BME280;7432;48.728;9.154;2023-01-26T08:38:53;96904.28;;;0.11;91.97
14689;BME280;7432;48.728;9.154;2023-01-26T08:41:19;96896.03;;;0.07;92.63
14689;BME280;7432;48.728;9.154;2023-01-26T08:43:45;96883.38;;;0.07;93.56
14689;BME280;7432;48.728;9.154;2023-01-26T08:46:12;96893.56;;;0.06;92.91
14689;BME280;7432;48.728;9.154;2023-01-26T08:48:38;96892.22;;;0.14;93.35
14689;BME280;7432;48.728;9.154;2023-01-26T08:51:06;96893.59;;;0.20;94.00
14689;BME280;7432;48.728;9.154;2023-01-26T08:53:35;96895.53;;;0.16;93.58
14689;BME280;7432;48.728;9.154;2023-01-26T08:56:03;96891.50;;;0.12;94.44
14689;BME280;7432;48.728;9.154;2023-01-26T08:58:30;96885.19;;;0.05;93.90
14689;BME280;7432;48.728;9.154;2023-01-26T09:00:57;96885.00;;;0.08;94.51
14689;BME280;7432;48.728;9.154;2023-01-26T09:03:24;96888.72;;;0.17;95.17
14689;BME280;7432;48.728;9.154;2023-01-26T09:05:51;96882.03;;;0.16;94.88
14689;BME280;7432;48.728;9.154;2023-01-26T09:08:17;96885.28;;;0.18;94.76
14689;BME280;7432;48.728;9.154;2023-01-26T09:10:45;96886.56;;;0.25;95.30
14689;BME280;7432;48.728;9.154;2023-01-26T09:13:11;96885.50;;;0.29;94.52
14689;BME280;7432;48.728;9.154;2023-01-26T09:15:37;96880.81;;;0.37;93.40
14689;BME280;7432;48.728;9.154;2023-01-26T09:18:04;96886.22;;;0.31;92.13
14689;BME280;7432;48.728;9.154;2023-01-26T09:20:31;96878.72;;;0.29;92.41
14689;BME280;7432;48.728;9.154;2023-01-26T09:22:57;96891.28;;;0.31;92.56
14689;BME280;7432;48.728;9.154;2023-01-26T09:25:23;96886.31;;;0.29;92.05
14689;BME280;7432;48.728;9.154;2023-01-26T09:27:51;96887.84;;;0.32;91.24
14689;BME280;7432;48.728;9.154;2023-01-26T09:30:17;96891.06;;;0.20;89.61
14689;BME280;7432;48.728;9.154;2023-01-26T09:32:44;96890.53;;;0.15;90.60
14689;BME280;7432;48.728;9.154;2023-01-26T09:35:10;96891.13;;;0.04;91.99
14689;BME280;7432;48.728;9.154;2023-01-26T09:37:37;96895.22;;;0.07;91.96
14689;BME280;7432;48.728;9.154;2023-01-26T09:40:04;96899.22;;;0.11;92.95
14689;BME280;7432;48.728;9.154;2023-01-26T09:42:37;96898.91;;;0.01;92.15
14689;BME280;7432;48.728;9.154;2023-01-26T09:45:16;96902.84;;;-0.09;91.15
14689;BME280;7432;48.728;9.154;2023-01-26T09:47:54;96900.75;;;-0.17;91.00
14689;BME280;7432;48.728;9.154;2023-01-26T09:50:26;96899.22;;;-0.19;91.49
14689;BME280;7432;48.728;9.154;2023-01-26T09:52:58;96903.00;;;-0.12;92.33
14689;BME280;7432;48.728;9.154;2023-01-26T09:55:26;96901.94;;;-0.08;92.47
14689;BME280;7432;48.728;9.154;2023-01-26T09:57:56;96892.78;;;-0.11;91.89
14689;BME280;7432;48.728;9.154;2023-01-26T10:00:27;96899.22;;;-0.05;92.73
14689;BME280;7432;48.728;9.154;2023-01-26T10:03:07;96897.84;;;0.05;92.58
14689;BME280;7432;48.728;9.154;2023-01-26T10:05:42;96895.03;;;0.10;93.18
14689;BME280;7432;48.728;9.154;2023-01-26T10:08:11;96896.69;;;0.11;93.13
14689;BME280;7432;48.728;9.154;2023-01-26T10:10:41;96895.13;;;0.08;92.80
14689;BME280;7432;48.728;9.154;2023-01-26T10:13:12;96890.13;;;0.07;91.63
14689;BME280;7432;48.728;9.154;2023-01-26T10:15:42;96897.28;;;0.14;92.33
14689;BME280;7432;48.728;9.154;2023-01-26T10:18:15;96897.06;;;0.19;92.40
14689;BME280;7432;48.728;9.154;2023-01-26T10:20:45;96891.34;;;0.15;91.76
14689;BME280;7432;48.728;9.154;2023-01-26T10:23:14;96897.50;;;0.25;91.73
14689;BME280;7432;48.728;9.154;2023-01-26T10:25:43;96887.72;;;0.19;91.38
14689;BME280;7432;48.728;9.154;2023-01-26T10:28:12;96893.44;;;0.23;90.34
14689;BME280;7432;48.728;9.154;2023-01-26T10:30:42;96889.19;;;0.23;90.82
14689;BME280;7432;48.728;9.154;2023-01-26T10:33:13;96887.72;;;0.19;91.55
14689;BME280;7432;48.728;9.154;2023-01-26T10:35:40;96891.72;;;0.23;92.12
14689;BME280;7432;48.728;9.154;2023-01-26T10:38:25;96894.81;;;0.28;91.42
14689;BME280;7432;48.728;9.154;2023-01-26T10:40:52;96890.84;;;0.24;90.06
14689;BME280;7432;48.728;9.154;2023-01-26T10:43:18;96890.88;;;0.09;89.40
14689;BME280;7432;48.728;9.154;2023-01-26T10:45:46;96896.31;;;-0.13;89.69
14689;BME280;7432;48.728;9.154;2023-01-26T10:48:16;96892.88;;;-0.12;90.37
14689;BME280;7432;48.728;9.154;2023-01-26T10:50:43;96891.41;;;-0.16;90.14
14689;BME280;7432;48.728;9.154;2023-01-26T10:53:14;96887.66;;;-0.09;90.41
14689;BME280;7432;48.728;9.154;2023-01-26T10:55:41;96891.41;;;-0.16;90.33
14689;BME280;7432;48.728;9.154;2023-01-26T11:01:11;96888.03;;;-0.31;89.99
14689;BME280;7432;48.728;9.154;2023-01-26T11:03:40;96885.63;;;-0.18;90.54
14689;BME280;7432;48.728;9.154;2023-01-26T11:06:12;96886.13;;;-0.12;91.19
14689;BME280;7432;48.728;9.154;2023-01-26T11:08:40;96889.75;;;-0.02;91.78
14689;BME280;7432;48.728;9.154;2023-01-26T11:11:22;96869.66;;;-0.34;90.25
14689;BME280;7432;48.728;9.154;2023-01-26T11:14:08;96882.88;;;-0.29;88.96
14689;BME280;7432;48.728;9.154;2023-01-26T11:16:37;96862.31;;;-0.23;89.44
14689;BME280;7432;48.728;9.154;2023-01-26T11:19:07;96877.88;;;-0.15;88.33
14689;BME280;7432;48.728;9.154;2023-01-26T11:21:39;96873.47;;;-0.12;89.26
14689;BME280;7432;48.728;9.154;2023-01-26T11:24:11;96870.84;;;-0.10;89.29
14689;BME280;7432;48.728;9.154;2023-01-26T11:27:09;96867.25;;;-0.06;90.78
14689;BME280;7432;48.728;9.154;2023-01-26T11:29:48;96861.31;;;0.09;90.40
14689;BME280;7432;48.728;9.154;2023-01-26T11:32:24;96869.91;;;0.07;91.63
14689;BME280;7432;48.728;9.154;2023-01-26T11:35:06;96857.22;;;0.07;90.00
14689;BME280;7432;48.728;9.154;2023-01-26T11:37:42;96856.25;;;0.09;90.86
14689;BME280;7432;48.728;9.154;2023-01-26T11:40:23;96853.66;;;0.11;91.21
14689;BME280;7432;48.728;9.154;2023-01-26T11:43:02;96857.16;;;0.08;90.13
14689;BME280;7432;48.728;9.154;2023-01-26T11:45:35;96852.25;;;-0.09;90.66
14689;BME280;7432;48.728;9.154;2023-01-26T11:48:18;96847.25;;;-0.11;91.06
14689;BME280;7432;48.728;9.154;2023-01-26T11:50:53;96847.13;;;-0.23;89.35
14689;BME280;7432;48.728;9.154;2023-01-26T11:53:35;96845.09;;;-0.32;91.15
14689;BME280;7432;48.728;9.154;2023-01-26T11:56:15;96846.75;;;-0.31;91.12
14689;BME280;7432;48.728;9.154;2023-01-26T11:58:49;96845.91;;;-0.32;91.37
14689;BME280;7432;48.728;9.154;2023-01-26T12:01:21;96830.19;;;-0.37;92.42
14689;BME280;7432;48.728;9.154;2023-01-26T12:03:55;96835.41;;;-0.40;92.59
14689;BME280;7432;48.728;9.154;2023-01-26T12:06:27;96825.41;;;-0.41;92.64
14689;BME280;7432;48.728;9.154;2023-01-26T12:08:59;96830.09;;;-0.35;93.21
14689;BME280;7432;48.728;9.154;2023-01-26T12:11:32;96823.59;;;-0.39;93.94
14689;BME280;7432;48.728;9.154;2023-01-26T12:14:06;96830.53;;;-0.43;93.44
14689;BME280;7432;48.728;9.154;2023-01-26T12:16:43;96827.81;;;-0.40;93.02
14689;BME280;7432;48.728;9.154;2023-01-26T12:19:27;96811.09;;;-0.42;94.39
14689;BME280;7432;48.728;9.154;2023-01-26T12:22:00;96819.75;;;-0.31;93.17
14689;BME280;7432;48.728;9.154;2023-01-26T12:24:34;96815.59;;;-0.18;92.93
14689;BME280;7432;48.728;9.154;2023-01-26T12:27:04;96817.88;;;-0.13;92.76
14689;BME280;7432;48.728;9.154;2023-01-26T12:29:40;96812.19;;;-0.03;93.34
14689;BME280;7432;48.728;9.154;2023-01-26T12:32:12;96810.84;;;0.06;92.73
14689;BME280;7432;48.728;9.154;2023-01-26T12:34:40;96814.38;;;0.04;91.48
14689;BME280;7432;48.728;9.154;2023-01-26T12:37:21;96805.78;;;0.06;93.09
14689;BME280;7432;48.728;9.154;2023-01-26T12:39:57;96805.06;;;0.04;93.09
14689;BME280;7432;48.728;9.154;2023-01-26T12:42:32;96799.84;;;0.07;92.01
14689;BME280;7432;48.728;9.154;2023-01-26T12:45:06;96804.09;;;0.07;91.68
14689;BME280;7432;48.728;9.154;2023-01-26T12:47:37;96796.41;;;0.08;92.27
14689;BME280;7432;48.728;9.154;2023-01-26T12:50:11;96789.88;;;0.04;91.39
14689;BME280;7432;48.728;9.154;2023-01-26T12:52:43;96790.44;;;0.09;91.51
14689;BME280;7432;48.728;9.154;2023-01-26T12:55:15;96789.06;;;0.04;91.74
14689;BME280;7432;48.728;9.154;2023-01-26T12:57:46;96785.84;;;0.16;91.14
14689;BME280;7432;48.728;9.154;2023-01-26T13:00:18;96788.91;;;0.07;90.73
14689;BME280;7432;48.728;9.154;2023-01-26T13:02:48;96790.97;;;0.14;89.47
14689;BME280;7432;48.728;9.154;2023-01-26T13:05:26;96795.22;;;-0.01;89.33
14689;BME280;7432;48.728;9.154;2023-01-26T13:07:52;96794.47;;;-0.03;89.64
14689;BME280;7432;48.728;9.154;2023-01-26T13:10:22;96789.63;;;0.09;88.15
14689;BME280;7432;48.728;9.154;2023-01-26T13:12:51;96795.84;;;0.03;88.37
14689;BME280;7432;48.728;9.154;2023-01-26T13:15:19;96798.81;;;-0.05;88.75
14689;BME280;7432;48.728;9.154;2023-01-26T13:17:57;96778.13;;;-0.11;89.33
14689;BME280;7432;48.728;9.154;2023-01-26T13:20:44;96789.78;;;-0.09;89.10
14689;BME280;7432;48.728;9.154;2023-01-26T13:23:39;96788.94;;;-0.23;90.00
14689;BME280;7432;48.728;9.154;2023-01-26T13:29:31;96777.97;;;-0.38;90.53
14689;BME280;7432;48.728;9.154;2023-01-26T13:31:59;96784.66;;;-0.37;91.12
14689;BME280;7432;48.728;9.154;2023-01-26T13:34:29;96776.81;;;-0.32;92.19
14689;BME280;7432;48.728;9.154;2023-01-26T13:37:04;96767.84;;;-0.38;92.75
14689;BME280;7432;48.728;9.154;2023-01-26T13:39:35;96782.03;;;-0.35;91.17